Dannelly, Alabama
Current Conditions -  °F | °C
As of 5:58 PM on Saturday 20 Dec 2014 (Local Time) from KMXF Reporting Station
Overcast Overcast  
Wind Chill: 52°   Ceiling: 3500
Heat Index: 52°   Visibility: 10mi
Dew Point: 47°   Wind: 6mph
Humidity: 85%   Direction: 360°N
Pressure: 30.16"   Gusts: NA
Location:  32.3488°N, 86.4016°W
Report Text: KMXF 202358Z AUTO 36005KT 10SM FEW017 OVC035 11/09 A3016 RMK AO2 SLP216 T01100085 10118 20104 52010
Loading
Personal Weather Stations






























Interactive Weather Map New forecast layout! Learn more

10-Day Weather Forecast

Advertisements
Track Severe Weather on mobile